Time;durP1;ratioP1;P1;durP2;ratioP2;P2;SDS_P1;SDS_P2;PMS_P1;PMS_P2;Temp;Humidity;BMP_temperature;BMP_pressure;BME280_temperature;BME280_humidity;BME280_pressure;Samples;Min_cycle;Max_cycle;Signal;HPM_P1;HPM_P2
2020/12/07 00:01:53;;;;;;;25.92;14.23;;;;;;;10.26;73.77;99719.38;5034870;28;20018;-75
2020/12/07 00:04:18;;;;;;;19.10;13.68;;;;;;;9.75;73.92;99634.50;5033855;28;20018;-75
2020/12/07 00:06:43;;;;;;;22.05;13.27;;;;;;;10.08;73.81;99698.47;5034739;28;20036;-76
2020/12/07 00:09:09;;;;;;;20.50;14.27;;;;;;;10.16;73.49;99706.38;5034762;28;20025;-75
2020/12/07 00:11:34;;;;;;;26.88;14.68;;;;;;;9.88;73.65;99669.88;5034727;28;20459;-75
2020/12/07 00:14:00;;;;;;;21.13;13.70;;;;;;;10.04;73.99;99698.00;5033680;28;20032;-75
2020/12/07 00:16:26;;;;;;;23.50;14.77;;;;;;;10.20;73.94;99731.44;5034809;28;20356;-76
2020/12/07 00:18:52;;;;;;;24.42;14.45;;;;;;;10.13;73.90;99709.34;5033609;28;20151;-75
2020/12/07 00:21:17;;;;;;;24.00;13.77;;;;;;;9.99;74.14;99678.41;5033706;28;20064;-75
2020/12/07 00:23:43;;;;;;;23.90;13.45;;;;;;;9.99;73.99;99684.50;5033594;28;20028;-76
2020/12/07 00:26:10;;;;;;;19.98;12.18;;;;;;;10.15;73.87;99724.00;5034500;28;20021;-75
2020/12/07 00:28:37;;;;;;;23.75;12.98;;;;;;;10.16;73.87;99717.75;5034655;28;20403;-74
2020/12/07 00:31:04;;;;;;;21.90;13.52;;;;;;;10.12;74.29;99713.81;5034776;28;20382;-76
2020/12/07 00:33:30;;;;;;;19.73;12.18;;;;;;;10.18;73.90;99715.75;5034560;28;20075;-75
2020/12/07 00:35:55;;;;;;;20.00;11.95;;;;;;;10.18;74.29;99712.28;5034414;28;20025;-75
2020/12/07 00:38:21;;;;;;;18.35;11.63;;;;;;;10.17;74.03;99727.31;5036576;28;20025;-75
2020/12/07 00:40:46;;;;;;;19.77;11.40;;;;;;;9.72;74.08;99633.00;5035603;28;20475;-76
2020/12/07 00:43:11;;;;;;;19.98;12.25;;;;;;;9.87;73.73;99655.03;5035504;28;20018;-75
2020/12/07 00:45:37;;;;;;;20.80;11.80;;;;;;;9.96;73.61;99690.13;5034516;28;20029;-75
2020/12/07 00:48:02;;;;;;;17.98;11.68;;;;;;;9.83;74.09;99656.38;5034391;28;20026;-75
2020/12/07 00:50:27;;;;;;;17.70;11.48;;;;;;;10.08;73.96;99701.13;5034635;28;20025;-76
2020/12/07 00:52:53;;;;;;;18.58;11.55;;;;;;;10.16;74.10;99706.38;5033242;28;20022;-76
2020/12/07 00:55:18;;;;;;;18.77;13.20;;;;;;;10.14;74.08;99705.72;5034585;28;20018;-75
2020/12/07 00:57:44;;;;;;;17.40;12.52;;;;;;;10.13;74.51;99711.97;5034404;28;20426;-75
2020/12/07 01:00:09;;;;;;;19.33;12.13;;;;;;;10.05;73.91;99697.00;5049751;28;20021;-76
2020/12/07 01:02:35;;;;;;;17.00;12.05;;;;;;;10.16;73.88;99696.63;5034335;28;20021;-75
2020/12/07 01:05:01;;;;;;;19.23;13.50;;;;;;;10.17;74.01;99693.00;5034123;28;20017;-76
2020/12/07 01:07:26;;;;;;;16.00;11.77;;;;;;;9.92;73.69;99651.06;5034212;28;20034;-75
2020/12/07 01:09:51;;;;;;;19.95;12.18;;;;;;;10.17;73.32;99693.00;5034126;28;20021;-76
2020/12/07 01:12:17;;;;;;;17.65;12.07;;;;;;;10.06;74.23;99680.19;5034124;28;20399;-75
2020/12/07 01:14:44;;;;;;;20.75;11.90;;;;;;;10.16;73.95;99685.25;5034303;28;20022;-75
2020/12/07 01:17:09;;;;;;;17.85;10.82;;;;;;;10.17;73.44;99679.00;5033975;28;20025;-75
2020/12/07 01:19:35;;;;;;;17.27;11.07;;;;;;;9.99;73.74;99654.66;5034379;28;20036;-75
2020/12/07 01:22:00;;;;;;;19.70;11.20;;;;;;;9.70;73.63;99627.09;5033023;28;20442;-75
2020/12/07 01:24:25;;;;;;;17.23;11.23;;;;;;;10.22;73.57;99696.97;5034156;28;20447;-76
2020/12/07 01:26:51;;;;;;;17.73;12.02;;;;;;;10.19;73.80;99682.28;5036189;28;20021;-75
2020/12/07 01:29:17;;;;;;;22.48;12.20;;;;;;;9.78;74.07;99613.88;5037789;28;20108;-76
2020/12/07 01:31:42;;;;;;;18.48;11.82;;;;;;;9.81;73.42;99613.53;5037631;28;20030;-75
2020/12/07 01:34:08;;;;;;;17.67;11.68;;;;;;;10.11;73.74;99669.94;5036411;28;20059;-75
2020/12/07 01:36:33;;;;;;;18.70;11.85;;;;;;;10.22;73.71;99689.06;5037661;28;20053;-75
2020/12/07 01:38:58;;;;;;;18.85;11.30;;;;;;;10.22;73.33;99686.41;5037487;28;20032;-75
2020/12/07 01:41:24;;;;;;;18.52;10.80;;;;;;;10.21;73.53;99682.97;5036490;28;20022;-75
2020/12/07 01:43:49;;;;;;;14.50;10.48;;;;;;;10.14;73.62;99660.84;5036271;28;20014;-75
2020/12/07 01:46:20;;;;;;;17.77;11.13;;;;;;;9.95;73.57;99632.25;5038153;28;20030;-75
2020/12/07 01:48:46;;;;;;;17.65;11.60;;;;;;;10.03;73.38;99648.88;5042326;28;20025;-75
2020/12/07 01:51:13;;;;;;;16.70;11.93;;;;;;;9.90;73.83;99622.22;5037404;28;20029;-76
2020/12/07 01:53:38;;;;;;;17.02;11.80;;;;;;;9.97;73.63;99633.75;5037265;28;20021;-75
2020/12/07 01:56:09;;;;;;;16.70;10.95;;;;;;;9.55;73.60;99566.31;5036056;28;20104;-75
2020/12/07 01:58:34;;;;;;;14.88;10.80;;;;;;;9.78;73.62;99608.59;5037322;28;20032;-76
2020/12/07 02:01:02;;;;;;;17.15;10.23;;;;;;;10.18;73.61;99667.44;5052596;28;20025;-75
2020/12/07 02:03:27;;;;;;;18.17;10.50;;;;;;;9.63;73.31;99577.81;5037084;28;20325;-75
2020/12/07 02:05:53;;;;;;;14.65;9.57;;;;;;;9.58;73.78;99575.69;5037002;28;20028;-75
2020/12/07 02:08:19;;;;;;;16.85;9.52;;;;;;;10.05;73.86;99641.63;5037073;28;20029;-76
2020/12/07 02:10:46;;;;;;;15.75;9.95;;;;;;;10.13;73.30;99653.94;5037013;28;20422;-75
2020/12/07 02:13:13;;;;;;;13.20;9.02;;;;;;;10.13;73.67;99646.84;5036681;28;20025;-75
2020/12/07 02:15:39;;;;;;;16.75;9.77;;;;;;;9.55;73.52;99558.41;5037195;28;20317;-75
2020/12/07 02:18:06;;;;;;;11.63;7.95;;;;;;;10.12;73.80;99644.38;5036644;28;20458;-76
2020/12/07 02:20:31;;;;;;;12.40;9.18;;;;;;;10.10;73.46;99649.84;5036800;28;20014;-76
2020/12/07 02:22:57;;;;;;;15.00;9.15;;;;;;;9.42;73.64;99560.78;5036712;28;20340;-75
2020/12/07 02:25:23;;;;;;;16.67;10.27;;;;;;;10.09;73.44;99665.84;5036700;28;20022;-75
2020/12/07 02:27:52;;;;;;;15.75;9.93;;;;;;;10.08;72.99;99656.28;5036710;28;20034;-76
2020/12/07 02:30:20;;;;;;;15.15;8.90;;;;;;;9.87;74.01;99623.41;5036561;28;20021;-75
2020/12/07 02:32:46;;;;;;;12.98;9.90;;;;;;;9.91;73.54;99610.69;5036482;28;20033;-75
2020/12/07 02:35:13;;;;;;;17.98;9.88;;;;;;;10.08;73.92;99643.09;5036614;28;20033;-76
2020/12/07 02:37:39;;;;;;;14.68;9.52;;;;;;;10.08;73.78;99627.25;5035568;28;20410;-75
2020/12/07 02:40:08;;;;;;;14.38;9.57;;;;;;;9.90;73.43;99595.03;5036287;28;20057;-75
2020/12/07 02:42:35;;;;;;;14.52;9.70;;;;;;;9.73;73.51;99578.47;5036522;28;20063;-75
2020/12/07 02:45:03;;;;;;;13.48;9.35;;;;;;;10.09;73.74;99616.53;5036093;28;20462;-75
2020/12/07 02:47:28;;;;;;;15.45;9.93;;;;;;;9.53;73.89;99539.31;5036293;28;20343;-75
2020/12/07 02:49:56;;;;;;;15.63;9.57;;;;;;;9.82;73.80;99578.25;5036232;28;20027;-76
2020/12/07 02:52:23;;;;;;;13.55;9.40;;;;;;;10.07;73.21;99626.44;5042687;28;20029;-76
2020/12/07 02:54:54;;;;;;;13.52;9.00;;;;;;;9.93;73.47;99611.34;5037916;28;20101;-75
2020/12/07 02:57:19;;;;;;;13.10;9.45;;;;;;;9.65;73.71;99575.84;5035077;28;20489;-75
2020/12/07 02:59:45;;;;;;;12.70;8.93;;;;;;;10.04;73.95;99637.31;5035028;28;20018;-75
2020/12/07 03:02:10;;;;;;;14.95;9.52;;;;;;;9.96;74.06;99626.00;5035961;28;20435;-75
2020/12/07 03:04:36;;;;;;;14.85;8.80;;;;;;;9.90;73.64;99616.97;5035884;28;20025;-75
2020/12/07 03:07:01;;;;;;;12.35;9.05;;;;;;;9.72;73.86;99584.75;5035776;28;20486;-75
2020/12/07 03:09:27;;;;;;;14.93;9.25;;;;;;;9.59;73.44;99566.81;5035958;28;20021;-74
2020/12/07 03:11:52;;;;;;;15.38;8.90;;;;;;;9.97;73.52;99623.19;5035708;28;20053;-75
2020/12/07 03:14:17;;;;;;;15.25;10.02;;;;;;;9.95;73.78;99625.16;5034730;28;20481;-75
2020/12/07 03:16:43;;;;;;;15.57;9.15;;;;;;;9.32;73.47;99525.91;5035669;28;20028;-75
2020/12/07 03:19:10;;;;;;;18.17;9.88;;;;;;;10.03;73.75;99643.59;5034475;28;20025;-75
2020/12/07 03:21:35;;;;;;;14.43;9.27;;;;;;;9.95;73.82;99635.72;5035688;28;20021;-75
2020/12/07 03:24:01;;;;;;;17.73;9.95;;;;;;;9.92;73.26;99630.78;5035405;28;20018;-75
2020/12/07 03:26:27;;;;;;;14.43;10.55;;;;;;;10.05;73.34;99660.06;5035579;28;20029;-75
2020/12/07 03:28:52;;;;;;;13.82;8.23;;;;;;;9.45;73.16;99556.97;5035543;28;20029;-75
2020/12/07 03:31:18;;;;;;;13.13;8.88;;;;;;;9.66;73.54;99591.53;5034411;28;20021;-75
2020/12/07 03:33:43;;;;;;;12.70;9.38;;;;;;;9.53;73.33;99578.03;5035342;28;20021;-75
2020/12/07 03:36:08;;;;;;;17.52;9.90;;;;;;;10.00;73.33;99648.41;5035233;28;20032;-75
2020/12/07 03:38:34;;;;;;;14.00;10.05;;;;;;;9.76;73.17;99604.50;5034283;28;20340;-76
2020/12/07 03:40:59;;;;;;;14.93;8.45;;;;;;;10.07;73.14;99650.19;5035161;28;20021;-76
2020/12/07 03:43:24;;;;;;;15.88;9.30;;;;;;;10.07;73.37;99652.81;5035358;28;20348;-76
2020/12/07 03:45:50;;;;;;;15.30;9.52;;;;;;;9.45;73.00;99565.69;5035221;28;20167;-76
2020/12/07 03:48:15;;;;;;;15.52;9.68;;;;;;;9.86;73.01;99620.94;5034963;28;20021;-75
2020/12/07 03:50:40;;;;;;;16.42;10.75;;;;;;;9.83;73.19;99624.72;5035438;28;20021;-74
2020/12/07 03:53:06;;;;;;;15.50;11.20;;;;;;;9.79;73.09;99627.88;5034953;28;20171;-75
2020/12/07 03:55:31;;;;;;;15.35;10.80;;;;;;;9.86;73.22;99636.75;5035136;28;20032;-75
2020/12/07 03:57:56;;;;;;;16.48;10.32;;;;;;;10.02;73.47;99672.78;5039216;28;20053;-77
2020/12/07 04:00:22;;;;;;;16.77;11.23;;;;;;;9.92;73.19;99645.78;5037900;28;20017;-76
2020/12/07 04:02:47;;;;;;;20.77;11.95;;;;;;;9.36;73.59;99565.91;5034019;28;20025;-75
2020/12/07 04:05:29;;;;;;;23.65;11.55;;;;;;;10.04;73.21;99666.34;5033645;28;20021;-76
2020/12/07 04:07:55;;;;;;;15.95;11.75;;;;;;;9.77;73.12;99620.13;5033788;28;20152;-76
2020/12/07 04:10:20;;;;;;;16.40;12.45;;;;;;;9.93;73.43;99648.25;5033803;28;20041;-76
2020/12/07 04:12:45;;;;;;;18.00;12.63;;;;;;;9.85;73.25;99625.38;5033654;28;20033;-76
2020/12/07 04:15:11;;;;;;;18.92;13.13;;;;;;;9.90;73.02;99622.22;5034691;28;20017;-75
2020/12/07 04:17:36;;;;;;;22.75;15.32;;;;;;;9.64;73.38;99582.09;5034686;28;20035;-77
2020/12/07 04:20:02;;;;;;;20.80;15.57;;;;;;;10.03;73.53;99638.31;5034578;28;20498;-76
2020/12/07 04:22:28;;;;;;;24.65;16.02;;;;;;;9.65;73.34;99579.28;5034776;28;20424;-77
2020/12/07 04:24:53;;;;;;;20.23;13.27;;;;;;;9.95;73.07;99630.44;5034520;28;20140;-75
2020/12/07 04:27:18;;;;;;;18.48;12.65;;;;;;;10.01;73.20;99640.31;5033804;28;20483;-74
2020/12/07 04:29:44;;;;;;;16.75;11.90;;;;;;;9.83;72.74;99606.28;5034793;28;20032;-75
2020/12/07 04:32:09;;;;;;;17.77;11.60;;;;;;;10.02;73.14;99633.22;5034633;28;20409;-77
2020/12/07 04:34:34;;;;;;;19.63;11.93;;;;;;;9.70;72.76;99577.00;5034455;28;20083;-75
2020/12/07 04:37:00;;;;;;;17.85;11.52;;;;;;;10.03;73.41;99621.69;5034477;28;20351;-76
2020/12/07 04:39:25;;;;;;;17.52;11.95;;;;;;;9.85;73.13;99596.38;5034701;28;20021;-75
2020/12/07 04:41:51;;;;;;;17.05;11.05;;;;;;;10.02;73.03;99623.50;5034607;28;20102;-76
2020/12/07 04:44:17;;;;;;;19.88;12.70;;;;;;;10.02;73.43;99623.50;5034370;28;20386;-77
2020/12/07 04:46:45;;;;;;;19.33;12.18;;;;;;;9.89;72.81;99615.31;5034475;28;20026;-76
2020/12/07 04:49:14;;;;;;;17.85;11.68;;;;;;;9.98;73.25;99616.09;5034224;28;20483;-76
2020/12/07 04:51:39;;;;;;;20.52;12.00;;;;;;;9.89;73.14;99612.69;5033422;28;20052;-76
2020/12/07 04:54:06;;;;;;;21.73;11.40;;;;;;;9.99;73.36;99620.38;5034415;28;20422;-75
2020/12/07 04:56:34;;;;;;;19.50;10.80;;;;;;;9.93;73.35;99607.88;5034431;28;20021;-76
2020/12/07 04:59:01;;;;;;;17.42;11.55;;;;;;;9.74;73.15;99566.94;5034231;28;20037;-75
2020/12/07 05:01:26;;;;;;;19.40;11.88;;;;;;;9.84;73.10;99589.47;5037278;28;20029;-76
2020/12/07 05:03:51;;;;;;;21.38;12.55;;;;;;;9.86;73.02;99586.66;5037981;28;20025;-76
2020/12/07 05:06:19;;;;;;;19.02;13.02;;;;;;;10.01;72.89;99613.13;5038372;28;20436;-76
2020/12/07 05:08:46;;;;;;;19.83;12.23;;;;;;;9.92;73.50;99599.16;5039468;28;20017;-75
2020/12/07 05:11:12;;;;;;;18.00;11.30;;;;;;;9.84;73.08;99589.47;5037263;28;20029;-75
2020/12/07 05:14:00;;;;;;;19.38;13.25;;;;;;;9.99;73.17;99628.28;5037114;28;20022;-75
2020/12/07 05:16:28;;;;;;;17.02;12.32;;;;;;;9.79;72.97;99606.78;5038166;28;20048;-75
2020/12/07 05:18:54;;;;;;;22.38;12.75;;;;;;;9.96;72.87;99616.28;5036923;28;20456;-75
2020/12/07 05:21:19;;;;;;;22.10;12.85;;;;;;;9.88;72.89;99606.56;5038010;28;20037;-76
2020/12/07 05:23:50;;;;;;;23.92;13.45;;;;;;;9.98;72.92;99621.38;5053363;28;20014;-77
2020/12/07 05:26:18;;;;;;;18.77;13.02;;;;;;;9.96;73.16;99613.63;5053423;28;20103;-77
2020/12/07 05:28:47;;;;;;;20.30;14.00;;;;;;;9.48;73.12;99539.00;5037743;28;20029;-77
2020/12/07 05:31:14;;;;;;;21.90;14.02;;;;;;;9.39;73.17;99526.84;5036515;28;20029;-76
2020/12/07 05:33:40;;;;;;;26.38;15.18;;;;;;;9.91;73.29;99597.50;5036609;28;20021;-76
2020/12/07 05:36:05;;;;;;;17.85;13.20;;;;;;;9.94;72.90;99620.88;5036631;28;20059;-76
2020/12/07 05:38:33;;;;;;;26.35;15.65;;;;;;;10.07;73.06;99629.06;5037737;28;20072;-76
2020/12/07 05:41:04;;;;;;;21.13;15.80;;;;;;;10.13;72.55;99617.81;5036434;28;20108;-76
2020/12/07 05:43:32;;;;;;;35.00;22.38;;;;;;;10.25;72.41;99612.19;5037540;28;20032;-76
2020/12/07 05:45:59;;;;;;;31.77;22.55;;;;;;;10.04;72.41;99584.56;5036316;28;20502;-75
2020/12/07 05:48:29;;;;;;;36.15;25.27;;;;;;;9.86;72.00;99570.81;5037571;28;20033;-75
2020/12/07 05:50:55;;;;;;;33.17;22.38;;;;;;;9.94;72.50;99583.97;5037445;28;20084;-76
2020/12/07 05:53:25;;;;;;;31.60;22.70;;;;;;;9.66;72.18;99545.84;5036388;28;20435;-75
2020/12/07 05:55:51;;;;;;;30.45;20.13;;;;;;;9.48;72.63;99519.72;5036428;28;20100;-75
2020/12/07 05:58:31;;;;;;;33.65;22.02;;;;;;;10.18;72.37;99625.22;5037544;28;20063;-76
2020/12/07 06:01:01;;;;;;;30.90;21.98;;;;;;;10.16;72.45;99617.47;5036692;28;20030;-75
2020/12/07 06:03:27;;;;;;;30.95;20.90;;;;;;;10.14;72.38;99613.38;5037630;28;20106;-75
2020/12/07 06:05:52;;;;;;;29.95;21.10;;;;;;;9.68;72.39;99541.25;5037176;28;20431;-76
2020/12/07 06:08:22;;;;;;;29.85;18.83;;;;;;;10.12;72.59;99604.81;5037302;28;20022;-75
2020/12/07 06:11:11;;;;;;;28.75;19.23;;;;;;;9.85;72.36;99567.38;5037206;28;20420;-75
2020/12/07 06:13:37;;;;;;;24.67;18.33;;;;;;;10.08;72.39;99598.25;5036661;28;20041;-75
2020/12/07 06:16:06;;;;;;;27.00;18.75;;;;;;;9.44;72.42;99500.81;5036793;28;20044;-75
2020/12/07 06:18:33;;;;;;;33.42;21.27;;;;;;;10.04;72.43;99595.13;5035705;28;20387;-75
2020/12/07 06:21:03;;;;;;;25.13;15.90;;;;;;;10.01;72.57;99598.09;5036729;28;20029;-75
2020/12/07 06:23:50;;;;;;;23.27;13.65;;;;;;;10.00;72.32;99585.09;5036683;28;20057;-75
2020/12/07 06:26:18;;;;;;;18.48;12.88;;;;;;;9.92;72.62;99577.22;5036076;28;20094;-75
2020/12/07 06:28:48;;;;;;;18.58;14.00;;;;;;;9.91;72.95;99586.94;5036660;28;20029;-76
2020/12/07 06:31:18;;;;;;;16.98;12.57;;;;;;;9.64;72.87;99550.47;5037077;28;20035;-76
2020/12/07 06:33:49;;;;;;;18.35;13.45;;;;;;;9.52;73.02;99526.31;5053067;28;20017;-75
2020/12/07 06:36:32;;;;;;;16.38;11.48;;;;;;;9.69;72.96;99545.53;5050282;28;20078;-75
2020/12/07 06:39:06;;;;;;;15.70;11.60;;;;;;;10.00;72.65;99600.91;5039458;28;20364;-75
2020/12/07 06:41:39;;;;;;;20.88;13.48;;;;;;;9.48;72.46;99523.19;5040635;28;20339;-75
2020/12/07 06:44:16;;;;;;;19.13;12.23;;;;;;;9.88;72.17;99582.03;5056177;28;20029;-75
2020/12/07 06:47:01;;;;;;;16.83;11.27;;;;;;;10.04;72.49;99604.84;5056150;28;20032;-75
2020/12/07 06:49:40;;;;;;;17.98;12.95;;;;;;;9.99;72.57;99594.81;5056314;28;20028;-75
2020/12/07 06:52:12;;;;;;;16.70;11.57;;;;;;;10.04;72.45;99602.22;5055991;28;20083;-75
2020/12/07 06:57:26;;;;;;;22.42;13.93;;;;;;;10.02;72.55;99591.03;5035865;28;20352;-75
2020/12/07 06:59:56;;;;;;;19.15;13.60;;;;;;;10.06;72.50;99598.41;5045136;28;20434;-75
2020/12/07 07:02:21;;;;;;;21.73;14.82;;;;;;;9.96;72.42;99583.78;5054415;28;20017;-75
2020/12/07 07:04:54;;;;;;;21.58;13.23;;;;;;;9.73;72.18;99552.09;5043212;28;20032;-76
2020/12/07 07:07:25;;;;;;;22.42;12.68;;;;;;;10.05;72.22;99603.84;5035773;28;20037;-75
2020/12/07 07:09:51;;;;;;;26.15;15.85;;;;;;;10.08;72.52;99593.78;5054618;28;20031;-75
2020/12/07 07:12:17;;;;;;;22.42;13.55;;;;;;;10.06;72.57;99598.41;5055506;28;20100;-75
2020/12/07 07:14:45;;;;;;;21.48;13.32;;;;;;;9.95;72.47;99580.34;5055737;28;20100;-76
2020/12/07 07:17:11;;;;;;;22.88;14.38;;;;;;;9.77;72.62;99559.50;5055560;28;20101;-76
2020/12/07 07:19:36;;;;;;;22.13;12.88;;;;;;;9.20;72.34;99459.59;5053623;28;20032;-76
2020/12/07 07:22:02;;;;;;;30.95;15.13;;;;;;;9.98;72.21;99584.44;5052035;28;20032;-76
2020/12/07 07:24:36;;;;;;;20.75;13.77;;;;;;;9.76;72.07;99555.22;5041444;28;20021;-76
2020/12/07 07:29:51;;;;;;;20.25;12.35;;;;;;;9.81;72.12;99571.34;5033072;28;20067;-76
2020/12/07 07:32:17;;;;;;;13.70;10.18;;;;;;;9.80;71.60;99564.44;5051782;28;20051;-77
2020/12/07 07:34:46;;;;;;;14.93;10.85;;;;;;;9.30;71.71;99477.00;5052411;28;20316;-76
2020/12/07 07:37:12;;;;;;;17.48;11.50;;;;;;;9.69;71.85;99535.00;5050889;28;20024;-76
2020/12/07 07:39:37;;;;;;;23.00;14.05;;;;;;;9.58;71.56;99525.63;5053308;28;20067;-76
2020/12/07 07:42:12;;;;;;;21.25;13.25;;;;;;;9.86;71.48;99576.91;5052356;28;20025;-77
2020/12/07 07:44:45;;;;;;;20.80;14.10;;;;;;;9.72;71.67;99561.00;5055909;28;20112;-76
2020/12/07 07:47:19;;;;;;;24.38;15.73;;;;;;;9.90;71.50;99574.75;5054499;28;20025;-76
2020/12/07 08:16:57;;;;;;;30.75;20.98;;;;;;;9.89;70.84;99581.03;5044185;28;20044;-77
2020/12/07 08:19:25;;;;;;;32.05;22.45;;;;;;;9.88;70.85;99577.56;5049389;28;20070;-75
2020/12/07 08:21:51;;;;;;;34.20;23.67;;;;;;;9.80;70.61;99568.88;5052046;28;20397;-75
2020/12/07 08:24:17;;;;;;;36.97;25.73;;;;;;;9.51;69.99;99517.56;5053965;28;20036;-75
2020/12/07 08:26:43;;;;;;;28.17;20.38;;;;;;;9.68;69.98;99547.34;5054211;28;20486;-76
2020/12/07 08:29:09;;;;;;;23.75;15.82;;;;;;;9.65;70.61;99541.56;5053816;28;20453;-75
2020/12/07 08:31:37;;;;;;;22.45;15.35;;;;;;;9.85;70.70;99574.47;5054522;28;20029;-76
2020/12/07 08:34:29;;;;;;;29.15;20.52;;;;;;;9.64;70.18;99540.75;5053131;28;20177;-77
2020/12/07 08:36:54;;;;;;;;;;;;;;;9.75;70.19;99561.50;5057793;28;20100;-76
2020/12/07 08:39:20;;;;;;;26.48;20.00;;;;;;;9.77;70.83;99551.59;5053763;28;19959;-75
2020/12/07 08:41:45;;;;;;;36.63;23.95;;;;;;;9.54;70.75;99505.88;5058246;28;20017;-76
2020/12/07 08:44:11;;;;;;;40.83;26.40;;;;;;;9.67;70.99;99507.97;5058485;28;20061;-78
2020/12/07 08:46:38;;;;;;;35.10;24.20;;;;;;;9.77;70.81;99511.22;5059086;28;20086;-77
2020/12/07 08:49:05;;;;;;;28.08;21.48;;;;;;;9.73;70.69;99504.66;5050596;28;20017;-77
2020/12/07 08:51:33;;;;;;;26.27;19.08;;;;;;;9.87;71.07;99528.47;5058989;28;20021;-76
2020/12/07 08:53:59;;;;;;;27.02;20.02;;;;;;;9.82;70.67;99520.25;5058178;28;20025;-77
2020/12/07 08:56:27;;;;;;;30.95;21.85;;;;;;;9.69;70.74;99488.34;5054182;28;20458;-76
2020/12/07 08:58:53;;;;;;;32.60;22.75;;;;;;;9.33;70.92;99439.78;5057361;28;20021;-76
2020/12/07 09:01:18;;;;;;;33.00;23.45;;;;;;;9.92;70.45;99516.56;5055830;28;20355;-75
2020/12/07 09:03:46;;;;;;;31.02;22.65;;;;;;;9.56;70.77;99449.34;5057792;28;20335;-80
2020/12/07 09:06:13;;;;;;;35.72;25.38;;;;;;;9.68;70.75;99459.53;5059279;28;20032;-78
2020/12/07 09:08:42;;;;;;;36.08;26.60;;;;;;;9.93;70.38;99494.47;5056595;28;20051;-78
2020/12/07 09:11:10;;;;;;;42.50;26.60;;;;;;;9.77;70.49;99464.56;5053626;28;20079;-78
2020/12/07 09:13:36;;;;;;;43.25;28.67;;;;;;;9.22;70.29;99362.75;5055153;28;20017;-77
2020/12/07 09:16:03;;;;;;;36.70;26.10;;;;;;;9.05;69.96;99341.97;5057344;28;20035;-76
2020/12/07 09:18:29;;;;;;;36.85;26.40;;;;;;;9.99;70.39;99470.03;5051467;28;20017;-76
2020/12/07 09:20:55;;;;;;;36.03;24.98;;;;;;;9.99;70.28;99467.41;5058037;28;20021;-80
2020/12/07 09:23:21;;;;;;;39.35;26.02;;;;;;;9.62;70.51;99426.75;5058780;28;20020;-78
2020/12/07 09:25:47;;;;;;;37.00;25.08;;;;;;;9.84;70.66;99438.34;5059004;28;20024;-77
2020/12/07 09:28:13;;;;;;;43.92;28.60;;;;;;;9.97;70.55;99464.13;5056189;28;20029;-76
2020/12/07 09:30:38;;;;;;;41.00;29.17;;;;;;;9.97;70.59;99456.19;5053703;28;20434;-77
2020/12/07 09:33:04;;;;;;;41.05;31.02;;;;;;;9.52;70.68;99387.44;5057607;28;20036;-77
2020/12/07 09:35:30;;;;;;;45.30;29.83;;;;;;;9.95;70.60;99453.75;5055956;28;20610;-77
2020/12/07 09:37:56;;;;;;;39.20;29.27;;;;;;;9.95;71.18;99445.81;5056611;28;20025;-76
2020/12/07 09:40:21;;;;;;;35.50;26.30;;;;;;;9.53;70.70;99394.34;5056660;28;20454;-76
2020/12/07 09:42:47;;;;;;;37.45;26.17;;;;;;;9.96;70.53;99441.38;5069043;22;20045;-76
2020/12/07 09:45:13;;;;;;;37.95;26.60;;;;;;;9.97;70.71;99443.84;5075779;28;20112;-76
2020/12/07 09:47:38;;;;;;;36.55;25.30;;;;;;;9.83;70.69;99419.06;5056659;28;20386;-78
2020/12/07 09:50:05;;;;;;;37.85;25.80;;;;;;;9.90;70.68;99426.25;5075560;28;20439;-77
2020/12/07 09:52:31;;;;;;;34.03;23.17;;;;;;;9.58;70.41;99364.84;5074252;28;20033;-76
2020/12/07 09:54:56;;;;;;;32.17;20.08;;;;;;;10.02;70.87;99435.38;5056467;28;20031;-76
2020/12/07 09:57:22;;;;;;;28.55;19.30;;;;;;;9.39;70.57;99344.22;5076726;28;20073;-75
2020/12/07 09:59:49;;;;;;;25.13;16.88;;;;;;;9.83;70.83;99405.03;5075530;28;20111;-75
2020/12/07 10:02:15;;;;;;;25.45;17.58;;;;;;;10.04;70.42;99430.75;5075207;28;20107;-76
2020/12/07 10:04:41;;;;;;;25.52;17.20;;;;;;;10.01;70.67;99431.94;5076624;28;20457;-76
2020/12/07 10:07:07;;;;;;;25.13;19.35;;;;;;;10.03;70.59;99442.31;5076507;28;20024;-77
2020/12/07 10:09:32;;;;;;;27.50;19.35;;;;;;;9.87;70.84;99401.06;5076861;28;20021;-75
2020/12/07 10:11:58;;;;;;;26.40;19.58;;;;;;;9.70;70.88;99387.19;5076172;28;20115;-76
2020/12/07 10:14:23;;;;;;;20.27;15.13;;;;;;;9.56;70.62;99361.56;5075620;28;20028;-76
2020/12/07 10:16:49;;;;;;;21.90;15.20;;;;;;;9.80;70.41;99400.13;5040102;28;20027;-75
2020/12/07 10:19:15;;;;;;;29.02;17.90;;;;;;;9.94;70.33;99417.81;5076679;28;20518;-76
2020/12/07 10:21:41;;;;;;;31.02;20.27;;;;;;;9.66;70.93;99385.03;5076667;28;20081;-75
2020/12/07 10:24:07;;;;;;;19.73;15.95;;;;;;;9.93;71.00;99415.34;5058422;28;20028;-75
2020/12/07 10:26:33;;;;;;;20.70;14.98;;;;;;;9.95;70.96;99421.28;5076410;28;20028;-77
2020/12/07 10:29:00;;;;;;;21.08;14.77;;;;;;;9.93;70.97;99418.00;5058489;28;20427;-78
2020/12/07 10:31:25;;;;;;;26.33;17.40;;;;;;;9.59;70.54;99363.84;5058562;28;20048;-75
2020/12/07 10:33:52;;;;;;;29.38;19.88;;;;;;;9.42;71.06;99335.97;5076102;28;20079;-77
2020/12/07 10:36:19;;;;;;;34.00;20.77;;;;;;;9.26;70.94;99301.81;5076202;28;20112;-76
2020/12/07 10:38:46;;;;;;;28.85;20.48;;;;;;;9.72;70.75;99377.28;5076213;28;20024;-77
2020/12/07 10:41:13;;;;;;;31.35;22.20;;;;;;;9.91;71.04;99399.72;5058163;28;20032;-77
2020/12/07 10:43:40;;;;;;;31.60;22.60;;;;;;;9.32;71.32;99291.41;5058500;28;20086;-74
2020/12/07 10:46:05;;;;;;;35.65;23.40;;;;;;;9.55;70.89;99334.38;5075926;28;20033;-77
2020/12/07 10:48:32;;;;;;;38.33;26.42;;;;;;;9.12;71.10;99256.00;5075991;28;20038;-75
2020/12/07 10:50:57;;;;;;;36.22;26.00;;;;;;;9.60;71.15;99330.41;5075973;28;20493;-77
2020/12/07 10:53:24;;;;;;;38.70;27.10;;;;;;;9.93;71.03;99405.63;5075818;28;20028;-76
2020/12/07 10:55:50;;;;;;;38.42;26.15;;;;;;;9.92;71.17;99372.34;5075852;28;20434;-75
2020/12/07 10:58:15;;;;;;;37.28;24.65;;;;;;;9.49;70.69;99295.56;5056567;28;20023;-76
2020/12/07 11:00:41;;;;;;;47.22;32.95;;;;;;;9.95;71.19;99363.25;5074296;28;20032;-76
2020/12/07 11:03:07;;;;;;;42.45;28.95;;;;;;;9.91;71.66;99359.34;5075632;28;20312;-76
2020/12/07 11:05:33;;;;;;;45.63;32.83;;;;;;;9.84;71.52;99346.03;5075525;28;20056;-76
2020/12/07 11:07:59;;;;;;;41.38;31.00;;;;;;;9.82;71.62;99338.31;5056523;28;20091;-77
2020/12/07 11:10:24;;;;;;;44.50;30.77;;;;;;;9.48;71.83;99283.38;5075409;28;20381;-77
2020/12/07 11:13:01;;;;;;;44.42;28.75;;;;;;;9.81;71.95;99335.84;5075569;28;20020;-76
2020/12/07 11:15:27;;;;;;;31.65;21.65;;;;;;;9.33;72.12;99258.78;5055173;28;20028;-78
2020/12/07 11:17:53;;;;;;;28.80;20.88;;;;;;;9.92;71.72;99353.06;5072309;28;20017;-77
2020/12/07 11:20:18;;;;;;;28.15;19.10;;;;;;;9.91;72.06;99340.88;5056395;28;20032;-75
2020/12/07 11:22:43;;;;;;;26.00;18.67;;;;;;;9.24;72.29;99233.50;5055572;28;20051;-75
2020/12/07 11:25:09;;;;;;;30.85;21.13;;;;;;;9.45;72.11;99281.09;5056628;28;20111;-75
2020/12/07 11:27:35;;;;;;;31.15;20.73;;;;;;;9.45;72.19;99267.91;5073785;28;20025;-75
2020/12/07 11:30:00;;;;;;;29.65;19.50;;;;;;;9.70;72.31;99310.72;5073899;28;20025;-76
2020/12/07 11:32:25;;;;;;;25.02;17.35;;;;;;;9.55;72.48;99280.84;5056336;28;20084;-75
2020/12/07 11:34:51;;;;;;;23.98;17.15;;;;;;;9.51;72.51;99275.13;5075132;28;20024;-76
2020/12/07 11:37:16;;;;;;;22.42;15.32;;;;;;;9.85;72.64;99332.69;5073511;28;20024;-75
2020/12/07 11:39:52;;;;;;;22.92;16.55;;;;;;;9.40;72.64;99257.09;5073435;28;20028;-75
2020/12/07 11:42:37;;;;;;;27.95;18.88;;;;;;;9.47;72.95;99263.28;5051469;28;20029;-77
2020/12/07 11:45:03;;;;;;;31.98;22.48;;;;;;;9.74;72.67;99301.47;5074598;28;20028;-77
2020/12/07 11:47:28;;;;;;;30.15;22.73;;;;;;;9.36;72.93;99253.16;5056982;28;20461;-77
2020/12/07 11:49:54;;;;;;;38.47;25.85;;;;;;;9.66;72.88;99271.69;5072174;28;20078;-76
2020/12/07 11:52:19;;;;;;;33.33;23.75;;;;;;;9.77;72.63;99287.94;5074333;28;20028;-77
2020/12/07 11:54:45;;;;;;;38.45;27.38;;;;;;;9.86;72.96;99299.22;5074824;28;20028;-78
2020/12/07 11:57:10;;;;;;;41.08;28.75;;;;;;;9.63;73.00;99259.69;5074579;28;20071;-75